sensor_id;sensor_type;location;lat;lon;timestamp;P1;durP1;ratioP1;P2;durP2;ratioP2
77022;SDS011;65952;51.440;-2.054;2024-01-07T00:01:33;33.38;;;15.82;;
77022;SDS011;65952;51.440;-2.054;2024-01-07T00:03:59;31.08;;;16.58;;
77022;SDS011;65952;51.440;-2.054;2024-01-07T00:06:24;30.65;;;15.77;;
77022;SDS011;65952;51.440;-2.054;2024-01-07T00:08:50;31.55;;;16.35;;
77022;SDS011;65952;51.440;-2.054;2024-01-07T00:11:15;35.15;;;16.65;;
77022;SDS011;65952;51.440;-2.054;2024-01-07T00:13:40;34.35;;;18.02;;
77022;SDS011;65952;51.440;-2.054;2024-01-07T00:16:06;32.97;;;15.85;;
77022;SDS011;65952;51.440;-2.054;2024-01-07T00:18:31;34.30;;;17.42;;
77022;SDS011;65952;51.440;-2.054;2024-01-07T00:20:57;32.30;;;15.85;;
77022;SDS011;65952;51.440;-2.054;2024-01-07T00:23:22;34.70;;;17.67;;
77022;SDS011;65952;51.440;-2.054;2024-01-07T00:25:48;37.88;;;18.50;;
77022;SDS011;65952;51.440;-2.054;2024-01-07T00:28:13;33.97;;;17.95;;
77022;SDS011;65952;51.440;-2.054;2024-01-07T00:30:39;40.55;;;18.50;;
77022;SDS011;65952;51.440;-2.054;2024-01-07T00:33:05;37.70;;;18.55;;
77022;SDS011;65952;51.440;-2.054;2024-01-07T00:35:30;34.42;;;17.80;;
77022;SDS011;65952;51.440;-2.054;2024-01-07T00:37:56;35.95;;;18.23;;
77022;SDS011;65952;51.440;-2.054;2024-01-07T00:40:24;35.95;;;19.00;;
77022;SDS011;65952;51.440;-2.054;2024-01-07T00:42:50;40.70;;;18.00;;
77022;SDS011;65952;51.440;-2.054;2024-01-07T00:45:16;33.90;;;18.20;;
77022;SDS011;65952;51.440;-2.054;2024-01-07T00:47:43;36.35;;;17.95;;
77022;SDS011;65952;51.440;-2.054;2024-01-07T00:50:08;34.80;;;18.98;;
77022;SDS011;65952;51.440;-2.054;2024-01-07T00:52:34;34.28;;;17.15;;
77022;SDS011;65952;51.440;-2.054;2024-01-07T00:55:02;33.38;;;17.73;;
77022;SDS011;65952;51.440;-2.054;2024-01-07T00:57:28;32.92;;;17.42;;
77022;SDS011;65952;51.440;-2.054;2024-01-07T00:59:54;34.53;;;18.25;;
77022;SDS011;65952;51.440;-2.054;2024-01-07T01:02:19;39.78;;;19.58;;
77022;SDS011;65952;51.440;-2.054;2024-01-07T01:04:45;39.53;;;19.52;;
77022;SDS011;65952;51.440;-2.054;2024-01-07T01:07:10;34.13;;;17.45;;
77022;SDS011;65952;51.440;-2.054;2024-01-07T01:09:36;35.40;;;19.35;;
77022;SDS011;65952;51.440;-2.054;2024-01-07T01:12:01;35.85;;;17.45;;
77022;SDS011;65952;51.440;-2.054;2024-01-07T01:14:27;36.67;;;17.73;;
77022;SDS011;65952;51.440;-2.054;2024-01-07T01:16:52;35.92;;;18.40;;
77022;SDS011;65952;51.440;-2.054;2024-01-07T01:19:18;39.53;;;18.33;;
77022;SDS011;65952;51.440;-2.054;2024-01-07T01:21:43;37.47;;;18.88;;
77022;SDS011;65952;51.440;-2.054;2024-01-07T01:24:09;32.80;;;17.77;;
77022;SDS011;65952;51.440;-2.054;2024-01-07T01:26:34;36.53;;;17.60;;
77022;SDS011;65952;51.440;-2.054;2024-01-07T01:29:00;33.15;;;17.27;;
77022;SDS011;65952;51.440;-2.054;2024-01-07T01:31:27;34.30;;;17.90;;
77022;SDS011;65952;51.440;-2.054;2024-01-07T01:33:54;33.22;;;16.55;;
77022;SDS011;65952;51.440;-2.054;2024-01-07T01:36:19;36.13;;;17.63;;
77022;SDS011;65952;51.440;-2.054;2024-01-07T01:38:44;33.92;;;17.75;;
77022;SDS011;65952;51.440;-2.054;2024-01-07T01:41:10;30.60;;;16.73;;
77022;SDS011;65952;51.440;-2.054;2024-01-07T01:43:35;34.10;;;17.23;;
77022;SDS011;65952;51.440;-2.054;2024-01-07T01:46:01;34.50;;;18.13;;
77022;SDS011;65952;51.440;-2.054;2024-01-07T01:48:27;32.75;;;17.35;;
77022;SDS011;65952;51.440;-2.054;2024-01-07T01:50:53;31.98;;;17.25;;
77022;SDS011;65952;51.440;-2.054;2024-01-07T01:53:22;36.47;;;17.45;;
77022;SDS011;65952;51.440;-2.054;2024-01-07T01:55:49;31.05;;;16.77;;
77022;SDS011;65952;51.440;-2.054;2024-01-07T01:58:14;34.85;;;17.70;;
77022;SDS011;65952;51.440;-2.054;2024-01-07T02:00:43;35.60;;;16.35;;
77022;SDS011;65952;51.440;-2.054;2024-01-07T02:03:09;30.63;;;17.08;;
77022;SDS011;65952;51.440;-2.054;2024-01-07T02:05:34;33.85;;;17.08;;
77022;SDS011;65952;51.440;-2.054;2024-01-07T02:08:00;33.58;;;17.50;;
77022;SDS011;65952;51.440;-2.054;2024-01-07T02:10:25;34.08;;;16.73;;
77022;SDS011;65952;51.440;-2.054;2024-01-07T02:12:52;32.05;;;16.27;;
77022;SDS011;65952;51.440;-2.054;2024-01-07T02:15:17;34.58;;;16.83;;
77022;SDS011;65952;51.440;-2.054;2024-01-07T02:17:43;33.03;;;17.33;;
77022;SDS011;65952;51.440;-2.054;2024-01-07T02:20:08;30.90;;;16.23;;
77022;SDS011;65952;51.440;-2.054;2024-01-07T02:22:34;30.65;;;15.40;;
77022;SDS011;65952;51.440;-2.054;2024-01-07T02:24:59;33.70;;;16.70;;
77022;SDS011;65952;51.440;-2.054;2024-01-07T02:27:25;32.95;;;16.20;;
77022;SDS011;65952;51.440;-2.054;2024-01-07T02:29:50;32.38;;;16.60;;
77022;SDS011;65952;51.440;-2.054;2024-01-07T02:32:16;33.60;;;17.40;;
77022;SDS011;65952;51.440;-2.054;2024-01-07T02:34:44;28.75;;;15.93;;
77022;SDS011;65952;51.440;-2.054;2024-01-07T02:37:12;31.85;;;16.17;;
77022;SDS011;65952;51.440;-2.054;2024-01-07T02:39:37;28.58;;;16.13;;
77022;SDS011;65952;51.440;-2.054;2024-01-07T02:42:02;29.45;;;14.60;;
77022;SDS011;65952;51.440;-2.054;2024-01-07T02:44:28;34.38;;;15.80;;
77022;SDS011;65952;51.440;-2.054;2024-01-07T02:46:53;30.23;;;15.00;;
77022;SDS011;65952;51.440;-2.054;2024-01-07T02:49:19;29.55;;;14.88;;
77022;SDS011;65952;51.440;-2.054;2024-01-07T02:51:44;28.23;;;14.50;;
77022;SDS011;65952;51.440;-2.054;2024-01-07T02:54:14;31.45;;;15.13;;
77022;SDS011;65952;51.440;-2.054;2024-01-07T02:56:39;29.38;;;14.60;;
77022;SDS011;65952;51.440;-2.054;2024-01-07T02:59:05;26.52;;;14.65;;
77022;SDS011;65952;51.440;-2.054;2024-01-07T03:01:30;29.63;;;16.45;;
77022;SDS011;65952;51.440;-2.054;2024-01-07T03:03:58;31.63;;;16.55;;
77022;SDS011;65952;51.440;-2.054;2024-01-07T03:06:30;30.15;;;16.10;;
77022;SDS011;65952;51.440;-2.054;2024-01-07T03:08:55;31.15;;;16.80;;
77022;SDS011;65952;51.440;-2.054;2024-01-07T03:11:21;32.47;;;16.17;;
77022;SDS011;65952;51.440;-2.054;2024-01-07T03:13:46;31.23;;;15.77;;
77022;SDS011;65952;51.440;-2.054;2024-01-07T03:16:21;30.88;;;16.58;;
77022;SDS011;65952;51.440;-2.054;2024-01-07T03:18:47;29.85;;;16.63;;
77022;SDS011;65952;51.440;-2.054;2024-01-07T03:21:17;35.40;;;18.70;;
77022;SDS011;65952;51.440;-2.054;2024-01-07T03:23:46;37.45;;;17.83;;
77022;SDS011;65952;51.440;-2.054;2024-01-07T03:26:13;36.65;;;16.65;;
77022;SDS011;65952;51.440;-2.054;2024-01-07T03:28:38;30.27;;;16.55;;
77022;SDS011;65952;51.440;-2.054;2024-01-07T03:31:05;39.40;;;16.85;;
77022;SDS011;65952;51.440;-2.054;2024-01-07T03:33:33;33.40;;;17.63;;
77022;SDS011;65952;51.440;-2.054;2024-01-07T03:35:58;34.08;;;17.25;;
77022;SDS011;65952;51.440;-2.054;2024-01-07T03:38:23;34.83;;;18.02;;
77022;SDS011;65952;51.440;-2.054;2024-01-07T03:40:49;31.08;;;16.25;;
77022;SDS011;65952;51.440;-2.054;2024-01-07T03:43:14;32.63;;;17.27;;
77022;SDS011;65952;51.440;-2.054;2024-01-07T03:45:40;38.28;;;17.92;;
77022;SDS011;65952;51.440;-2.054;2024-01-07T03:48:06;34.35;;;16.08;;
77022;SDS011;65952;51.440;-2.054;2024-01-07T03:50:32;33.28;;;16.60;;
77022;SDS011;65952;51.440;-2.054;2024-01-07T03:52:58;35.08;;;16.38;;
77022;SDS011;65952;51.440;-2.054;2024-01-07T03:55:23;34.55;;;17.23;;
77022;SDS011;65952;51.440;-2.054;2024-01-07T03:57:48;31.35;;;16.83;;
77022;SDS011;65952;51.440;-2.054;2024-01-07T04:00:14;32.33;;;16.23;;
77022;SDS011;65952;51.440;-2.054;2024-01-07T04:02:39;33.15;;;16.77;;
77022;SDS011;65952;51.440;-2.054;2024-01-07T04:05:08;32.28;;;15.43;;
77022;SDS011;65952;51.440;-2.054;2024-01-07T04:07:34;31.88;;;16.25;;
77022;SDS011;65952;51.440;-2.054;2024-01-07T04:10:00;35.95;;;16.23;;
77022;SDS011;65952;51.440;-2.054;2024-01-07T04:12:25;31.88;;;15.95;;
77022;SDS011;65952;51.440;-2.054;2024-01-07T04:14:50;31.70;;;17.33;;
77022;SDS011;65952;51.440;-2.054;2024-01-07T04:17:16;30.08;;;16.15;;
77022;SDS011;65952;51.440;-2.054;2024-01-07T04:19:41;33.33;;;17.75;;
77022;SDS011;65952;51.440;-2.054;2024-01-07T04:22:06;39.05;;;17.90;;
77022;SDS011;65952;51.440;-2.054;2024-01-07T04:24:32;36.28;;;18.27;;
77022;SDS011;65952;51.440;-2.054;2024-01-07T04:26:57;34.33;;;17.73;;
77022;SDS011;65952;51.440;-2.054;2024-01-07T04:29:22;35.03;;;17.55;;
77022;SDS011;65952;51.440;-2.054;2024-01-07T04:31:48;36.30;;;17.85;;
77022;SDS011;65952;51.440;-2.054;2024-01-07T04:34:14;33.67;;;17.70;;
77022;SDS011;65952;51.440;-2.054;2024-01-07T04:36:39;34.80;;;18.85;;
77022;SDS011;65952;51.440;-2.054;2024-01-07T04:39:04;36.65;;;18.20;;
77022;SDS011;65952;51.440;-2.054;2024-01-07T04:41:30;34.60;;;17.42;;
77022;SDS011;65952;51.440;-2.054;2024-01-07T04:43:55;37.03;;;18.80;;
77022;SDS011;65952;51.440;-2.054;2024-01-07T04:46:21;36.13;;;18.00;;
77022;SDS011;65952;51.440;-2.054;2024-01-07T04:48:46;42.80;;;18.85;;
77022;SDS011;65952;51.440;-2.054;2024-01-07T04:51:11;33.85;;;17.50;;
77022;SDS011;65952;51.440;-2.054;2024-01-07T04:53:37;34.38;;;17.45;;
77022;SDS011;65952;51.440;-2.054;2024-01-07T04:56:02;35.88;;;17.48;;
77022;SDS011;65952;51.440;-2.054;2024-01-07T04:58:28;36.30;;;18.02;;
77022;SDS011;65952;51.440;-2.054;2024-01-07T05:00:53;32.38;;;16.33;;
77022;SDS011;65952;51.440;-2.054;2024-01-07T05:03:18;31.38;;;16.23;;
77022;SDS011;65952;51.440;-2.054;2024-01-07T05:05:44;31.77;;;16.20;;
77022;SDS011;65952;51.440;-2.054;2024-01-07T05:08:09;30.77;;;16.98;;
77022;SDS011;65952;51.440;-2.054;2024-01-07T05:10:35;25.90;;;13.90;;
77022;SDS011;65952;51.440;-2.054;2024-01-07T05:13:00;29.77;;;17.23;;
77022;SDS011;65952;51.440;-2.054;2024-01-07T05:15:30;26.00;;;13.82;;
77022;SDS011;65952;51.440;-2.054;2024-01-07T05:17:55;28.90;;;15.32;;
77022;SDS011;65952;51.440;-2.054;2024-01-07T05:20:21;28.65;;;14.60;;
77022;SDS011;65952;51.440;-2.054;2024-01-07T05:22:46;27.85;;;13.95;;
77022;SDS011;65952;51.440;-2.054;2024-01-07T05:25:11;29.08;;;13.63;;
77022;SDS011;65952;51.440;-2.054;2024-01-07T05:27:37;27.75;;;14.02;;
77022;SDS011;65952;51.440;-2.054;2024-01-07T05:30:03;24.15;;;12.18;;
77022;SDS011;65952;51.440;-2.054;2024-01-07T05:32:29;26.38;;;12.07;;
77022;SDS011;65952;51.440;-2.054;2024-01-07T05:34:54;25.65;;;13.57;;
77022;SDS011;65952;51.440;-2.054;2024-01-07T05:37:19;28.23;;;13.80;;
77022;SDS011;65952;51.440;-2.054;2024-01-07T05:39:45;23.67;;;12.73;;
77022;SDS011;65952;51.440;-2.054;2024-01-07T05:42:12;24.60;;;12.63;;
77022;SDS011;65952;51.440;-2.054;2024-01-07T05:44:37;25.40;;;13.65;;
77022;SDS011;65952;51.440;-2.054;2024-01-07T05:47:03;27.30;;;13.07;;
77022;SDS011;65952;51.440;-2.054;2024-01-07T05:49:29;24.15;;;11.02;;
77022;SDS011;65952;51.440;-2.054;2024-01-07T05:51:54;23.05;;;12.35;;
77022;SDS011;65952;51.440;-2.054;2024-01-07T05:54:20;20.85;;;10.38;;
77022;SDS011;65952;51.440;-2.054;2024-01-07T05:56:45;24.73;;;12.20;;
77022;SDS011;65952;51.440;-2.054;2024-01-07T05:59:10;25.30;;;12.55;;
77022;SDS011;65952;51.440;-2.054;2024-01-07T06:01:36;23.75;;;11.95;;
77022;SDS011;65952;51.440;-2.054;2024-01-07T06:04:01;20.75;;;11.45;;
77022;SDS011;65952;51.440;-2.054;2024-01-07T06:06:26;21.67;;;10.60;;
77022;SDS011;65952;51.440;-2.054;2024-01-07T06:08:52;20.08;;;10.75;;
77022;SDS011;65952;51.440;-2.054;2024-01-07T06:11:17;24.35;;;11.35;;
77022;SDS011;65952;51.440;-2.054;2024-01-07T06:13:45;21.77;;;10.77;;
77022;SDS011;65952;51.440;-2.054;2024-01-07T06:16:11;18.95;;;11.07;;
77022;SDS011;65952;51.440;-2.054;2024-01-07T06:18:36;20.75;;;10.27;;
77022;SDS011;65952;51.440;-2.054;2024-01-07T06:21:02;20.63;;;11.43;;
77022;SDS011;65952;51.440;-2.054;2024-01-07T06:23:27;26.63;;;11.18;;
77022;SDS011;65952;51.440;-2.054;2024-01-07T06:25:53;20.67;;;11.20;;
77022;SDS011;65952;51.440;-2.054;2024-01-07T06:28:18;21.73;;;11.35;;
77022;SDS011;65952;51.440;-2.054;2024-01-07T06:30:43;19.35;;;10.15;;
77022;SDS011;65952;51.440;-2.054;2024-01-07T06:33:09;19.85;;;9.73;;
77022;SDS011;65952;51.440;-2.054;2024-01-07T06:35:34;23.33;;;10.48;;
77022;SDS011;65952;51.440;-2.054;2024-01-07T06:37:59;19.77;;;10.05;;
77022;SDS011;65952;51.440;-2.054;2024-01-07T06:40:25;19.20;;;9.68;;
77022;SDS011;65952;51.440;-2.054;2024-01-07T06:42:50;18.05;;;9.18;;
77022;SDS011;65952;51.440;-2.054;2024-01-07T06:45:16;16.48;;;8.95;;
77022;SDS011;65952;51.440;-2.054;2024-01-07T06:47:42;17.27;;;7.80;;
77022;SDS011;65952;51.440;-2.054;2024-01-07T06:50:08;15.60;;;8.00;;
77022;SDS011;65952;51.440;-2.054;2024-01-07T06:52:35;15.27;;;7.65;;
77022;SDS011;65952;51.440;-2.054;2024-01-07T06:55:00;14.20;;;7.18;;
77022;SDS011;65952;51.440;-2.054;2024-01-07T06:57:26;12.85;;;6.38;;
77022;SDS011;65952;51.440;-2.054;2024-01-07T06:59:51;9.13;;;4.80;;
77022;SDS011;65952;51.440;-2.054;2024-01-07T07:02:17;12.15;;;5.35;;
77022;SDS011;65952;51.440;-2.054;2024-01-07T07:04:42;11.00;;;5.10;;
77022;SDS011;65952;51.440;-2.054;2024-01-07T07:07:08;7.55;;;4.30;;
77022;SDS011;65952;51.440;-2.054;2024-01-07T07:09:33;7.47;;;4.45;;
77022;SDS011;65952;51.440;-2.054;2024-01-07T07:11:59;6.88;;;4.00;;
77022;SDS011;65952;51.440;-2.054;2024-01-07T07:14:25;6.95;;;3.78;;
77022;SDS011;65952;51.440;-2.054;2024-01-07T07:16:50;8.05;;;3.80;;
77022;SDS011;65952;51.440;-2.054;2024-01-07T07:19:15;5.40;;;3.35;;
77022;SDS011;65952;51.440;-2.054;2024-01-07T07:21:42;6.78;;;3.25;;
77022;SDS011;65952;51.440;-2.054;2024-01-07T07:24:09;6.20;;;3.17;;
77022;SDS011;65952;51.440;-2.054;2024-01-07T07:26:34;8.05;;;3.15;;
77022;SDS011;65952;51.440;-2.054;2024-01-07T07:29:01;7.32;;;3.50;;
77022;SDS011;65952;51.440;-2.054;2024-01-07T07:31:27;6.90;;;3.30;;
77022;SDS011;65952;51.440;-2.054;2024-01-07T07:33:52;8.32;;;3.30;;
77022;SDS011;65952;51.440;-2.054;2024-01-07T07:36:18;6.68;;;2.95;;
77022;SDS011;65952;51.440;-2.054;2024-01-07T07:38:43;6.03;;;3.00;;
77022;SDS011;65952;51.440;-2.054;2024-01-07T07:41:08;6.90;;;2.78;;
77022;SDS011;65952;51.440;-2.054;2024-01-07T07:43:34;6.50;;;2.72;;
77022;SDS011;65952;51.440;-2.054;2024-01-07T07:45:59;5.72;;;3.47;;
77022;SDS011;65952;51.440;-2.054;2024-01-07T07:48:27;9.18;;;3.65;;
77022;SDS011;65952;51.440;-2.054;2024-01-07T07:50:53;12.02;;;3.92;;
77022;SDS011;65952;51.440;-2.054;2024-01-07T07:53:18;6.57;;;3.67;;
77022;SDS011;65952;51.440;-2.054;2024-01-07T07:55:44;7.50;;;3.85;;
77022;SDS011;65952;51.440;-2.054;2024-01-07T07:58:09;7.43;;;3.65;;
77022;SDS011;65952;51.440;-2.054;2024-01-07T08:00:35;10.25;;;3.50;;
77022;SDS011;65952;51.440;-2.054;2024-01-07T08:03:00;7.20;;;3.35;;
77022;SDS011;65952;51.440;-2.054;2024-01-07T08:05:26;8.48;;;3.20;;
77022;SDS011;65952;51.440;-2.054;2024-01-07T08:07:51;7.03;;;3.47;;
77022;SDS011;65952;51.440;-2.054;2024-01-07T08:10:16;8.50;;;3.10;;
77022;SDS011;65952;51.440;-2.054;2024-01-07T08:12:42;6.05;;;3.38;;
77022;SDS011;65952;51.440;-2.054;2024-01-07T08:15:07;9.88;;;3.47;;
77022;SDS011;65952;51.440;-2.054;2024-01-07T08:17:33;8.43;;;4.03;;
77022;SDS011;65952;51.440;-2.054;2024-01-07T08:19:58;12.45;;;3.30;;
77022;SDS011;65952;51.440;-2.054;2024-01-07T08:22:24;9.48;;;3.47;;
77022;SDS011;65952;51.440;-2.054;2024-01-07T08:24:50;8.00;;;3.50;;
77022;SDS011;65952;51.440;-2.054;2024-01-07T08:27:16;9.48;;;3.33;;
77022;SDS011;65952;51.440;-2.054;2024-01-07T08:29:42;9.30;;;3.63;;
77022;SDS011;65952;51.440;-2.054;2024-01-07T08:32:09;8.32;;;3.75;;
77022;SDS011;65952;51.440;-2.054;2024-01-07T08:34:34;8.65;;;3.47;;
77022;SDS011;65952;51.440;-2.054;2024-01-07T08:37:00;8.02;;;3.58;;
77022;SDS011;65952;51.440;-2.054;2024-01-07T08:39:25;9.82;;;4.30;;
77022;SDS011;65952;51.440;-2.054;2024-01-07T08:41:51;8.43;;;3.60;;
77022;SDS011;65952;51.440;-2.054;2024-01-07T08:44:16;7.45;;;3.70;;
77022;SDS011;65952;51.440;-2.054;2024-01-07T08:46:42;9.80;;;3.70;;
77022;SDS011;65952;51.440;-2.054;2024-01-07T08:49:07;6.35;;;3.40;;
77022;SDS011;65952;51.440;-2.054;2024-01-07T08:51:33;9.00;;;3.75;;
77022;SDS011;65952;51.440;-2.054;2024-01-07T08:53:58;7.07;;;3.80;;
77022;SDS011;65952;51.440;-2.054;2024-01-07T08:56:24;8.77;;;3.65;;
77022;SDS011;65952;51.440;-2.054;2024-01-07T08:58:50;6.82;;;3.38;;
77022;SDS011;65952;51.440;-2.054;2024-01-07T09:01:17;6.15;;;3.38;;
77022;SDS011;65952;51.440;-2.054;2024-01-07T09:03:42;6.15;;;3.45;;
77022;SDS011;65952;51.440;-2.054;2024-01-07T09:06:08;6.70;;;3.50;;
77022;SDS011;65952;51.440;-2.054;2024-01-07T09:08:33;7.00;;;3.33;;
77022;SDS011;65952;51.440;-2.054;2024-01-07T09:11:00;7.30;;;3.33;;
77022;SDS011;65952;51.440;-2.054;2024-01-07T09:13:26;7.75;;;3.25;;
77022;SDS011;65952;51.440;-2.054;2024-01-07T09:15:52;5.80;;;3.22;;
77022;SDS011;65952;51.440;-2.054;2024-01-07T09:18:17;7.38;;;3.10;;
77022;SDS011;65952;51.440;-2.054;2024-01-07T09:20:43;6.63;;;3.10;;
77022;SDS011;65952;51.440;-2.054;2024-01-07T09:23:09;6.78;;;3.30;;
77022;SDS011;65952;51.440;-2.054;2024-01-07T09:25:34;7.57;;;3.30;;
77022;SDS011;65952;51.440;-2.054;2024-01-07T09:28:00;6.07;;;3.17;;
77022;SDS011;65952;51.440;-2.054;2024-01-07T09:30:25;8.18;;;3.38;;
77022;SDS011;65952;51.440;-2.054;2024-01-07T09:32:51;5.93;;;2.90;;
77022;SDS011;65952;51.440;-2.054;2024-01-07T09:35:16;6.50;;;2.97;;
77022;SDS011;65952;51.440;-2.054;2024-01-07T09:37:42;6.18;;;3.00;;
77022;SDS011;65952;51.440;-2.054;2024-01-07T09:40:08;5.13;;;2.97;;
77022;SDS011;65952;51.440;-2.054;2024-01-07T09:42:34;7.05;;;3.17;;
77022;SDS011;65952;51.440;-2.054;2024-01-07T09:45:02;6.45;;;2.72;;
77022;SDS011;65952;51.440;-2.054;2024-01-07T09:47:31;5.60;;;2.72;;
77022;SDS011;65952;51.440;-2.054;2024-01-07T09:49:57;6.78;;;2.80;;
77022;SDS011;65952;51.440;-2.054;2024-01-07T09:52:22;5.82;;;2.80;;
77022;SDS011;65952;51.440;-2.054;2024-01-07T09:54:51;4.50;;;2.35;;
77022;SDS011;65952;51.440;-2.054;2024-01-07T09:57:23;7.47;;;2.60;;
77022;SDS011;65952;51.440;-2.054;2024-01-07T09:59:48;6.45;;;2.53;;
77022;SDS011;65952;51.440;-2.054;2024-01-07T10:02:14;4.53;;;2.35;;
77022;SDS011;65952;51.440;-2.054;2024-01-07T10:04:40;5.93;;;2.35;;
77022;SDS011;65952;51.440;-2.054;2024-01-07T10:07:06;5.82;;;2.47;;
77022;SDS011;65952;51.440;-2.054;2024-01-07T10:09:32;4.90;;;2.50;;
77022;SDS011;65952;51.440;-2.054;2024-01-07T10:11:58;4.90;;;2.60;;
77022;SDS011;65952;51.440;-2.054;2024-01-07T10:14:24;6.88;;;2.50;;
77022;SDS011;65952;51.440;-2.054;2024-01-07T10:16:51;6.18;;;2.45;;
77022;SDS011;65952;51.440;-2.054;2024-01-07T10:19:23;4.90;;;2.60;;
77022;SDS011;65952;51.440;-2.054;2024-01-07T10:21:59;5.80;;;2.63;;
77022;SDS011;65952;51.440;-2.054;2024-01-07T10:24:35;4.70;;;2.38;;
77022;SDS011;65952;51.440;-2.054;2024-01-07T10:27:05;5.03;;;2.55;;
77022;SDS011;65952;51.440;-2.054;2024-01-07T10:29:31;5.15;;;2.78;;
77022;SDS011;65952;51.440;-2.054;2024-01-07T10:31:57;5.43;;;2.65;;
77022;SDS011;65952;51.440;-2.054;2024-01-07T10:34:23;6.15;;;2.50;;
77022;SDS011;65952;51.440;-2.054;2024-01-07T10:36:51;6.57;;;2.53;;
77022;SDS011;65952;51.440;-2.054;2024-01-07T10:39:19;5.93;;;2.72;;
77022;SDS011;65952;51.440;-2.054;2024-01-07T10:41:45;5.05;;;2.35;;
77022;SDS011;65952;51.440;-2.054;2024-01-07T10:44:12;5.32;;;2.30;;
77022;SDS011;65952;51.440;-2.054;2024-01-07T10:46:38;8.40;;;3.03;;
77022;SDS011;65952;51.440;-2.054;2024-01-07T10:49:07;5.85;;;2.78;;
77022;SDS011;65952;51.440;-2.054;2024-01-07T10:52:05;4.35;;;2.40;;
77022;SDS011;65952;51.440;-2.054;2024-01-07T10:54:33;3.83;;;2.15;;
77022;SDS011;65952;51.440;-2.054;2024-01-07T10:59:34;4.93;;;2.70;;
77022;SDS011;65952;51.440;-2.054;2024-01-07T11:02:01;6.18;;;2.20;;
77022;SDS011;65952;51.440;-2.054;2024-01-07T11:10:25;9.00;;;2.60;;
77022;SDS011;65952;51.440;-2.054;2024-01-07T11:12:55;5.22;;;2.63;;
77022;SDS011;65952;51.440;-2.054;2024-01-07T11:18:17;5.00;;;2.45;;
77022;SDS011;65952;51.440;-2.054;2024-01-07T11:20:43;4.97;;;2.53;;
77022;SDS011;65952;51.440;-2.054;2024-01-07T11:23:43;4.68;;;2.20;;
77022;SDS011;65952;51.440;-2.054;2024-01-07T11:26:08;3.33;;;2.10;;
77022;SDS011;65952;51.440;-2.054;2024-01-07T11:31:20;4.50;;;2.28;;
77022;SDS011;65952;51.440;-2.054;2024-01-07T11:33:48;4.80;;;2.83;;
77022;SDS011;65952;51.440;-2.054;2024-01-07T11:36:17;7.18;;;2.97;;
77022;SDS011;65952;51.440;-2.054;2024-01-07T11:38:49;5.00;;;2.25;;
77022;SDS011;65952;51.440;-2.054;2024-01-07T11:41:15;8.75;;;2.80;;
77022;SDS011;65952;51.440;-2.054;2024-01-07T11:43:55;8.80;;;2.50;;
77022;SDS011;65952;51.440;-2.054;2024-01-07T11:46:23;5.75;;;2.42;;
77022;SDS011;65952;51.440;-2.054;2024-01-07T11:48:50;6.65;;;2.35;;
77022;SDS011;65952;51.440;-2.054;2024-01-07T11:51:18;5.07;;;2.40;;
77022;SDS011;65952;51.440;-2.054;2024-01-07T11:53:45;5.03;;;2.63;;
77022;SDS011;65952;51.440;-2.054;2024-01-07T11:56:12;4.35;;;2.25;;
77022;SDS011;65952;51.440;-2.054;2024-01-07T11:58:39;5.57;;;3.03;;
77022;SDS011;65952;51.440;-2.054;2024-01-07T12:01:06;6.60;;;2.35;;
77022;SDS011;65952;51.440;-2.054;2024-01-07T12:03:31;5.28;;;2.35;;
77022;SDS011;65952;51.440;-2.054;2024-01-07T12:05:56;3.78;;;1.95;;
77022;SDS011;65952;51.440;-2.054;2024-01-07T12:08:22;4.70;;;1.95;;
77022;SDS011;65952;51.440;-2.054;2024-01-07T12:10:47;4.90;;;1.85;;
77022;SDS011;65952;51.440;-2.054;2024-01-07T12:13:14;5.15;;;2.42;;
77022;SDS011;65952;51.440;-2.054;2024-01-07T12:15:40;6.07;;;2.58;;
77022;SDS011;65952;51.440;-2.054;2024-01-07T12:18:06;4.55;;;2.00;;
77022;SDS011;65952;51.440;-2.054;2024-01-07T12:20:32;6.30;;;2.10;;
77022;SDS011;65952;51.440;-2.054;2024-01-07T12:23:04;3.65;;;1.95;;
77022;SDS011;65952;51.440;-2.054;2024-01-07T12:25:33;4.75;;;2.10;;
77022;SDS011;65952;51.440;-2.054;2024-01-07T12:28:00;4.97;;;2.00;;
77022;SDS011;65952;51.440;-2.054;2024-01-07T12:30:26;3.78;;;1.92;;
77022;SDS011;65952;51.440;-2.054;2024-01-07T12:32:52;5.68;;;1.88;;
77022;SDS011;65952;51.440;-2.054;2024-01-07T12:35:18;3.20;;;1.77;;
77022;SDS011;65952;51.440;-2.054;2024-01-07T12:37:44;5.13;;;1.80;;
77022;SDS011;65952;51.440;-2.054;2024-01-07T12:40:10;4.55;;;2.00;;
77022;SDS011;65952;51.440;-2.054;2024-01-07T12:42:39;4.38;;;1.85;;
77022;SDS011;65952;51.440;-2.054;2024-01-07T12:45:10;3.10;;;1.65;;
77022;SDS011;65952;51.440;-2.054;2024-01-07T12:47:39;4.85;;;2.00;;
77022;SDS011;65952;51.440;-2.054;2024-01-07T12:50:07;4.20;;;1.95;;
77022;SDS011;65952;51.440;-2.054;2024-01-07T12:52:38;3.75;;;1.80;;
77022;SDS011;65952;51.440;-2.054;2024-01-07T12:55:05;4.60;;;1.63;;
77022;SDS011;65952;51.440;-2.054;2024-01-07T12:57:32;4.15;;;1.98;;
77022;SDS011;65952;51.440;-2.054;2024-01-07T12:59:58;3.75;;;2.00;;
77022;SDS011;65952;51.440;-2.054;2024-01-07T13:02:23;4.75;;;2.10;;
77022;SDS011;65952;51.440;-2.054;2024-01-07T13:04:49;3.88;;;1.77;;
77022;SDS011;65952;51.440;-2.054;2024-01-07T13:07:15;5.50;;;1.98;;
77022;SDS011;65952;51.440;-2.054;2024-01-07T13:09:41;3.88;;;1.80;;
77022;SDS011;65952;51.440;-2.054;2024-01-07T13:12:07;4.72;;;2.08;;
77022;SDS011;65952;51.440;-2.054;2024-01-07T13:14:32;4.18;;;2.00;;
77022;SDS011;65952;51.440;-2.054;2024-01-07T13:16:58;4.20;;;2.10;;
77022;SDS011;65952;51.440;-2.054;2024-01-07T13:19:24;3.75;;;1.80;;
77022;SDS011;65952;51.440;-2.054;2024-01-07T13:21:49;5.47;;;2.10;;
77022;SDS011;65952;51.440;-2.054;2024-01-07T13:24:15;4.65;;;2.10;;
77022;SDS011;65952;51.440;-2.054;2024-01-07T13:26:41;5.07;;;2.03;;
77022;SDS011;65952;51.440;-2.054;2024-01-07T13:29:07;4.07;;;2.08;;
77022;SDS011;65952;51.440;-2.054;2024-01-07T13:31:32;5.78;;;2.50;;
77022;SDS011;65952;51.440;-2.054;2024-01-07T13:33:58;6.97;;;2.15;;
77022;SDS011;65952;51.440;-2.054;2024-01-07T13:36:23;8.75;;;3.67;;
77022;SDS011;65952;51.440;-2.054;2024-01-07T13:38:48;6.65;;;2.72;;
77022;SDS011;65952;51.440;-2.054;2024-01-07T13:41:15;4.72;;;2.35;;
77022;SDS011;65952;51.440;-2.054;2024-01-07T13:43:42;6.07;;;2.22;;
77022;SDS011;65952;51.440;-2.054;2024-01-07T13:46:08;5.65;;;2.15;;
77022;SDS011;65952;51.440;-2.054;2024-01-07T13:48:34;5.75;;;2.40;;
77022;SDS011;65952;51.440;-2.054;2024-01-07T13:51:00;5.97;;;2.05;;
77022;SDS011;65952;51.440;-2.054;2024-01-07T13:53:25;4.20;;;2.00;;
77022;SDS011;65952;51.440;-2.054;2024-01-07T13:55:51;6.25;;;2.50;;
77022;SDS011;65952;51.440;-2.054;2024-01-07T13:58:16;4.07;;;1.90;;
77022;SDS011;65952;51.440;-2.054;2024-01-07T14:00:42;4.90;;;2.10;;
77022;SDS011;65952;51.440;-2.054;2024-01-07T14:03:07;4.47;;;2.05;;
77022;SDS011;65952;51.440;-2.054;2024-01-07T14:05:33;4.78;;;2.00;;
77022;SDS011;65952;51.440;-2.054;2024-01-07T14:07:59;4.25;;;2.10;;
77022;SDS011;65952;51.440;-2.054;2024-01-07T14:10:25;5.85;;;1.90;;
77022;SDS011;65952;51.440;-2.054;2024-01-07T14:12:50;4.97;;;2.20;;
77022;SDS011;65952;51.440;-2.054;2024-01-07T14:15:16;5.65;;;2.15;;
77022;SDS011;65952;51.440;-2.054;2024-01-07T14:17:43;4.28;;;2.13;;
77022;SDS011;65952;51.440;-2.054;2024-01-07T14:20:10;4.40;;;2.20;;
77022;SDS011;65952;51.440;-2.054;2024-01-07T14:22:35;4.05;;;2.10;;
77022;SDS011;65952;51.440;-2.054;2024-01-07T14:25:02;4.13;;;2.08;;
77022;SDS011;65952;51.440;-2.054;2024-01-07T14:27:28;3.90;;;2.17;;
77022;SDS011;65952;51.440;-2.054;2024-01-07T14:29:54;5.07;;;2.40;;